sensor_id;sensor_type;location;lat;lon;timestamp;temperature;humidity
11152;DHT22;5630;49.342;10.802;2022-12-08T00:00:48;2.30;99.90
11152;DHT22;5630;49.342;10.802;2022-12-08T00:03:14;2.20;99.90
11152;DHT22;5630;49.342;10.802;2022-12-08T00:05:47;2.10;99.90
11152;DHT22;5630;49.342;10.802;2022-12-08T00:08:31;2.10;99.90
11152;DHT22;5630;49.342;10.802;2022-12-08T00:11:16;2.00;99.90
11152;DHT22;5630;49.342;10.802;2022-12-08T00:13:42;2.10;99.90
11152;DHT22;5630;49.342;10.802;2022-12-08T00:16:08;2.00;99.90
11152;DHT22;5630;49.342;10.802;2022-12-08T00:18:34;2.00;99.90
11152;DHT22;5630;49.342;10.802;2022-12-08T00:21:00;2.10;99.90
11152;DHT22;5630;49.342;10.802;2022-12-08T00:23:25;2.00;99.90
11152;DHT22;5630;49.342;10.802;2022-12-08T00:25:51;2.00;99.90
11152;DHT22;5630;49.342;10.802;2022-12-08T00:28:17;2.00;99.90
11152;DHT22;5630;49.342;10.802;2022-12-08T00:30:42;1.90;99.90
11152;DHT22;5630;49.342;10.802;2022-12-08T00:33:09;1.90;99.90
11152;DHT22;5630;49.342;10.802;2022-12-08T00:35:35;1.90;99.90
11152;DHT22;5630;49.342;10.802;2022-12-08T00:38:00;1.90;99.90
11152;DHT22;5630;49.342;10.802;2022-12-08T00:40:26;1.90;99.90
11152;DHT22;5630;49.342;10.802;2022-12-08T00:42:51;1.90;99.90
11152;DHT22;5630;49.342;10.802;2022-12-08T00:45:17;1.90;99.90
11152;DHT22;5630;49.342;10.802;2022-12-08T00:47:43;1.90;99.90
11152;DHT22;5630;49.342;10.802;2022-12-08T00:50:09;1.90;99.90
11152;DHT22;5630;49.342;10.802;2022-12-08T00:52:34;2.00;99.90
11152;DHT22;5630;49.342;10.802;2022-12-08T00:55:00;1.90;99.90
11152;DHT22;5630;49.342;10.802;2022-12-08T00:57:25;1.90;99.90
11152;DHT22;5630;49.342;10.802;2022-12-08T00:59:51;1.80;99.90
11152;DHT22;5630;49.342;10.802;2022-12-08T01:02:16;1.90;99.90
11152;DHT22;5630;49.342;10.802;2022-12-08T01:04:42;1.80;99.90
11152;DHT22;5630;49.342;10.802;2022-12-08T01:07:08;1.80;99.90
11152;DHT22;5630;49.342;10.802;2022-12-08T01:09:33;1.90;99.90
11152;DHT22;5630;49.342;10.802;2022-12-08T01:11:59;1.80;99.90
11152;DHT22;5630;49.342;10.802;2022-12-08T01:14:25;1.80;99.90
11152;DHT22;5630;49.342;10.802;2022-12-08T01:16:50;1.90;99.90
11152;DHT22;5630;49.342;10.802;2022-12-08T01:19:17;1.80;99.90
11152;DHT22;5630;49.342;10.802;2022-12-08T01:21:44;1.80;99.90
11152;DHT22;5630;49.342;10.802;2022-12-08T01:24:11;1.80;99.90
11152;DHT22;5630;49.342;10.802;2022-12-08T01:26:37;1.80;99.90
11152;DHT22;5630;49.342;10.802;2022-12-08T01:29:03;1.80;99.90
11152;DHT22;5630;49.342;10.802;2022-12-08T01:31:28;1.70;99.90
11152;DHT22;5630;49.342;10.802;2022-12-08T01:33:54;1.70;99.90
11152;DHT22;5630;49.342;10.802;2022-12-08T01:36:28;1.70;99.90
11152;DHT22;5630;49.342;10.802;2022-12-08T01:38:56;1.70;99.90
11152;DHT22;5630;49.342;10.802;2022-12-08T01:41:24;1.70;99.90
11152;DHT22;5630;49.342;10.802;2022-12-08T01:46:34;1.70;99.90
11152;DHT22;5630;49.342;10.802;2022-12-08T01:49:07;1.70;99.90
11152;DHT22;5630;49.342;10.802;2022-12-08T01:51:48;1.60;99.90
11152;DHT22;5630;49.342;10.802;2022-12-08T01:54:16;1.60;99.90
11152;DHT22;5630;49.342;10.802;2022-12-08T01:56:48;1.60;99.90
11152;DHT22;5630;49.342;10.802;2022-12-08T01:59:15;1.70;99.90
11152;DHT22;5630;49.342;10.802;2022-12-08T02:01:41;1.60;99.90
11152;DHT22;5630;49.342;10.802;2022-12-08T02:04:08;1.60;99.90
11152;DHT22;5630;49.342;10.802;2022-12-08T02:06:38;1.60;99.90
11152;DHT22;5630;49.342;10.802;2022-12-08T02:09:05;1.50;99.90
11152;DHT22;5630;49.342;10.802;2022-12-08T02:11:31;1.60;99.90
11152;DHT22;5630;49.342;10.802;2022-12-08T02:13:57;1.60;99.90
11152;DHT22;5630;49.342;10.802;2022-12-08T02:19:15;1.60;99.90
11152;DHT22;5630;49.342;10.802;2022-12-08T02:36:22;1.50;99.90
11152;DHT22;5630;49.342;10.802;2022-12-08T02:39:15;1.50;99.90
11152;DHT22;5630;49.342;10.802;2022-12-08T02:41:51;1.60;99.90
11152;DHT22;5630;49.342;10.802;2022-12-08T02:44:26;1.50;99.90
11152;DHT22;5630;49.342;10.802;2022-12-08T02:47:03;1.50;99.90
11152;DHT22;5630;49.342;10.802;2022-12-08T02:49:34;1.50;99.90
11152;DHT22;5630;49.342;10.802;2022-12-08T02:54:35;1.60;99.90
11152;DHT22;5630;49.342;10.802;2022-12-08T03:02:16;1.50;99.90
11152;DHT22;5630;49.342;10.802;2022-12-08T03:08:00;1.50;99.90
11152;DHT22;5630;49.342;10.802;2022-12-08T03:10:34;1.50;99.90
11152;DHT22;5630;49.342;10.802;2022-12-08T03:13:17;1.40;99.90
11152;DHT22;5630;49.342;10.802;2022-12-08T03:15:47;1.50;99.90
11152;DHT22;5630;49.342;10.802;2022-12-08T03:18:16;1.40;99.90
11152;DHT22;5630;49.342;10.802;2022-12-08T03:20:45;1.40;99.90
11152;DHT22;5630;49.342;10.802;2022-12-08T03:23:13;1.40;99.90
11152;DHT22;5630;49.342;10.802;2022-12-08T03:25:51;1.40;99.90
11152;DHT22;5630;49.342;10.802;2022-12-08T03:28:21;1.40;99.90
11152;DHT22;5630;49.342;10.802;2022-12-08T03:30:47;1.40;99.90
11152;DHT22;5630;49.342;10.802;2022-12-08T03:33:23;1.30;99.90
11152;DHT22;5630;49.342;10.802;2022-12-08T03:35:49;1.30;99.90
11152;DHT22;5630;49.342;10.802;2022-12-08T03:38:16;1.30;99.90
11152;DHT22;5630;49.342;10.802;2022-12-08T03:40:43;1.20;99.90
11152;DHT22;5630;49.342;10.802;2022-12-08T03:43:09;1.30;99.90
11152;DHT22;5630;49.342;10.802;2022-12-08T03:45:35;1.30;99.90
11152;DHT22;5630;49.342;10.802;2022-12-08T03:48:01;1.30;99.90
11152;DHT22;5630;49.342;10.802;2022-12-08T03:50:27;1.40;99.90
11152;DHT22;5630;49.342;10.802;2022-12-08T03:52:52;1.40;99.90
11152;DHT22;5630;49.342;10.802;2022-12-08T03:55:18;1.40;99.90
11152;DHT22;5630;49.342;10.802;2022-12-08T03:57:45;1.40;99.90
11152;DHT22;5630;49.342;10.802;2022-12-08T04:00:14;1.40;99.90
11152;DHT22;5630;49.342;10.802;2022-12-08T04:02:40;1.40;99.90
11152;DHT22;5630;49.342;10.802;2022-12-08T04:05:05;1.50;99.90
11152;DHT22;5630;49.342;10.802;2022-12-08T04:07:31;1.50;99.90
11152;DHT22;5630;49.342;10.802;2022-12-08T04:09:57;1.50;99.90
11152;DHT22;5630;49.342;10.802;2022-12-08T04:12:22;1.50;99.90
11152;DHT22;5630;49.342;10.802;2022-12-08T04:14:48;1.50;99.90
11152;DHT22;5630;49.342;10.802;2022-12-08T04:17:13;1.40;99.90
11152;DHT22;5630;49.342;10.802;2022-12-08T04:19:39;1.50;99.90
11152;DHT22;5630;49.342;10.802;2022-12-08T04:22:05;1.50;99.90
11152;DHT22;5630;49.342;10.802;2022-12-08T04:24:31;1.50;99.90
11152;DHT22;5630;49.342;10.802;2022-12-08T04:26:56;1.50;99.90
11152;DHT22;5630;49.342;10.802;2022-12-08T04:29:22;1.50;99.90
11152;DHT22;5630;49.342;10.802;2022-12-08T04:31:48;1.50;99.90
11152;DHT22;5630;49.342;10.802;2022-12-08T04:34:13;1.50;99.90
11152;DHT22;5630;49.342;10.802;2022-12-08T04:36:39;1.50;99.90
11152;DHT22;5630;49.342;10.802;2022-12-08T04:39:04;1.50;99.90
11152;DHT22;5630;49.342;10.802;2022-12-08T04:41:30;1.50;99.90
11152;DHT22;5630;49.342;10.802;2022-12-08T04:43:55;1.50;99.90
11152;DHT22;5630;49.342;10.802;2022-12-08T04:46:21;1.50;99.90
11152;DHT22;5630;49.342;10.802;2022-12-08T04:48:46;1.40;99.90
11152;DHT22;5630;49.342;10.802;2022-12-08T04:51:17;1.40;99.90
11152;DHT22;5630;49.342;10.802;2022-12-08T04:53:44;1.30;99.90
11152;DHT22;5630;49.342;10.802;2022-12-08T04:56:14;1.30;99.90
11152;DHT22;5630;49.342;10.802;2022-12-08T04:58:40;1.30;99.90
11152;DHT22;5630;49.342;10.802;2022-12-08T05:01:06;1.30;99.90
11152;DHT22;5630;49.342;10.802;2022-12-08T05:03:31;1.30;99.90
11152;DHT22;5630;49.342;10.802;2022-12-08T05:05:58;1.30;99.90
11152;DHT22;5630;49.342;10.802;2022-12-08T05:08:24;1.30;99.90
11152;DHT22;5630;49.342;10.802;2022-12-08T05:10:50;1.20;99.90
11152;DHT22;5630;49.342;10.802;2022-12-08T05:13:15;1.30;99.90
11152;DHT22;5630;49.342;10.802;2022-12-08T05:15:41;1.30;99.90
11152;DHT22;5630;49.342;10.802;2022-12-08T05:18:06;1.30;99.90
11152;DHT22;5630;49.342;10.802;2022-12-08T05:20:33;1.30;99.90
11152;DHT22;5630;49.342;10.802;2022-12-08T05:22:58;1.30;99.90
11152;DHT22;5630;49.342;10.802;2022-12-08T05:25:24;1.30;99.90
11152;DHT22;5630;49.342;10.802;2022-12-08T05:27:49;1.30;99.90
11152;DHT22;5630;49.342;10.802;2022-12-08T05:30:15;1.30;99.90
11152;DHT22;5630;49.342;10.802;2022-12-08T05:32:40;1.30;99.90
11152;DHT22;5630;49.342;10.802;2022-12-08T05:35:06;1.20;99.90
11152;DHT22;5630;49.342;10.802;2022-12-08T05:37:32;1.20;99.90
11152;DHT22;5630;49.342;10.802;2022-12-08T05:39:57;1.10;99.90
11152;DHT22;5630;49.342;10.802;2022-12-08T05:42:23;1.10;99.90
11152;DHT22;5630;49.342;10.802;2022-12-08T05:44:49;1.10;99.90
11152;DHT22;5630;49.342;10.802;2022-12-08T05:47:14;1.10;99.90
11152;DHT22;5630;49.342;10.802;2022-12-08T05:49:40;1.10;99.90
11152;DHT22;5630;49.342;10.802;2022-12-08T05:52:05;1.10;99.90
11152;DHT22;5630;49.342;10.802;2022-12-08T05:54:31;1.10;99.90
11152;DHT22;5630;49.342;10.802;2022-12-08T05:56:56;1.20;99.90
11152;DHT22;5630;49.342;10.802;2022-12-08T05:59:22;1.10;99.90
11152;DHT22;5630;49.342;10.802;2022-12-08T06:01:47;1.20;99.90
11152;DHT22;5630;49.342;10.802;2022-12-08T06:04:13;1.20;99.90
11152;DHT22;5630;49.342;10.802;2022-12-08T06:06:38;1.20;99.90
11152;DHT22;5630;49.342;10.802;2022-12-08T06:09:04;1.20;99.90
11152;DHT22;5630;49.342;10.802;2022-12-08T06:11:31;1.20;99.90
11152;DHT22;5630;49.342;10.802;2022-12-08T06:13:57;1.30;99.90
11152;DHT22;5630;49.342;10.802;2022-12-08T06:16:27;1.30;99.90
11152;DHT22;5630;49.342;10.802;2022-12-08T06:18:53;1.30;99.90
11152;DHT22;5630;49.342;10.802;2022-12-08T06:21:19;1.30;99.90
11152;DHT22;5630;49.342;10.802;2022-12-08T06:23:51;1.20;99.90
11152;DHT22;5630;49.342;10.802;2022-12-08T06:26:17;1.30;99.90
11152;DHT22;5630;49.342;10.802;2022-12-08T06:28:43;1.30;99.90
11152;DHT22;5630;49.342;10.802;2022-12-08T06:31:14;1.30;99.90
11152;DHT22;5630;49.342;10.802;2022-12-08T06:33:39;1.30;99.90
11152;DHT22;5630;49.342;10.802;2022-12-08T06:36:06;1.40;99.90
11152;DHT22;5630;49.342;10.802;2022-12-08T06:38:32;1.50;99.90
11152;DHT22;5630;49.342;10.802;2022-12-08T06:40:58;1.40;99.90
11152;DHT22;5630;49.342;10.802;2022-12-08T06:43:24;1.40;99.90
11152;DHT22;5630;49.342;10.802;2022-12-08T06:45:51;1.70;99.90
11152;DHT22;5630;49.342;10.802;2022-12-08T06:48:17;3.70;99.90
11152;DHT22;5630;49.342;10.802;2022-12-08T06:50:43;4.80;99.90
11152;DHT22;5630;49.342;10.802;2022-12-08T06:53:13;5.70;99.90
11152;DHT22;5630;49.342;10.802;2022-12-08T06:55:43;5.00;99.90
11152;DHT22;5630;49.342;10.802;2022-12-08T06:58:11;4.50;99.90
11152;DHT22;5630;49.342;10.802;2022-12-08T07:00:37;4.10;99.90
11152;DHT22;5630;49.342;10.802;2022-12-08T07:03:02;3.70;99.90
11152;DHT22;5630;49.342;10.802;2022-12-08T07:05:28;3.30;99.90
11152;DHT22;5630;49.342;10.802;2022-12-08T07:07:53;3.00;99.90
11152;DHT22;5630;49.342;10.802;2022-12-08T07:10:19;2.80;99.90
11152;DHT22;5630;49.342;10.802;2022-12-08T07:12:44;2.60;99.90
11152;DHT22;5630;49.342;10.802;2022-12-08T07:15:10;2.50;99.90
11152;DHT22;5630;49.342;10.802;2022-12-08T07:17:35;2.30;99.90
11152;DHT22;5630;49.342;10.802;2022-12-08T07:20:01;2.20;99.90
11152;DHT22;5630;49.342;10.802;2022-12-08T07:22:27;2.10;99.90
11152;DHT22;5630;49.342;10.802;2022-12-08T07:24:52;2.10;99.90
11152;DHT22;5630;49.342;10.802;2022-12-08T07:27:18;2.10;99.90
11152;DHT22;5630;49.342;10.802;2022-12-08T07:29:43;2.00;99.90
11152;DHT22;5630;49.342;10.802;2022-12-08T07:32:09;2.00;99.90
11152;DHT22;5630;49.342;10.802;2022-12-08T07:34:34;1.90;99.90
11152;DHT22;5630;49.342;10.802;2022-12-08T07:37:00;1.90;99.90
11152;DHT22;5630;49.342;10.802;2022-12-08T07:39:26;1.90;99.90
11152;DHT22;5630;49.342;10.802;2022-12-08T07:41:52;1.90;99.90
11152;DHT22;5630;49.342;10.802;2022-12-08T07:44:17;1.90;99.90
11152;DHT22;5630;49.342;10.802;2022-12-08T07:46:43;1.80;99.90
11152;DHT22;5630;49.342;10.802;2022-12-08T07:49:08;1.90;99.90
11152;DHT22;5630;49.342;10.802;2022-12-08T07:51:34;1.80;99.90
11152;DHT22;5630;49.342;10.802;2022-12-08T07:53:59;1.90;99.90
11152;DHT22;5630;49.342;10.802;2022-12-08T07:56:25;1.90;99.90
11152;DHT22;5630;49.342;10.802;2022-12-08T07:58:50;1.90;99.90
11152;DHT22;5630;49.342;10.802;2022-12-08T08:01:25;1.90;99.90
11152;DHT22;5630;49.342;10.802;2022-12-08T08:03:51;1.90;99.90
11152;DHT22;5630;49.342;10.802;2022-12-08T08:06:17;1.90;99.90
11152;DHT22;5630;49.342;10.802;2022-12-08T08:08:43;1.80;99.90
11152;DHT22;5630;49.342;10.802;2022-12-08T08:11:09;1.80;99.90
11152;DHT22;5630;49.342;10.802;2022-12-08T08:13:35;1.80;99.90
11152;DHT22;5630;49.342;10.802;2022-12-08T08:16:03;1.70;99.90
11152;DHT22;5630;49.342;10.802;2022-12-08T08:18:29;1.70;99.90
11152;DHT22;5630;49.342;10.802;2022-12-08T08:20:54;1.70;99.90
11152;DHT22;5630;49.342;10.802;2022-12-08T08:23:20;1.70;99.90
11152;DHT22;5630;49.342;10.802;2022-12-08T08:25:45;1.60;99.90
11152;DHT22;5630;49.342;10.802;2022-12-08T08:28:11;1.60;99.90
11152;DHT22;5630;49.342;10.802;2022-12-08T08:30:36;1.60;99.90
11152;DHT22;5630;49.342;10.802;2022-12-08T08:33:02;1.70;99.90
11152;DHT22;5630;49.342;10.802;2022-12-08T08:35:27;1.70;99.90
11152;DHT22;5630;49.342;10.802;2022-12-08T08:37:53;1.60;99.90
11152;DHT22;5630;49.342;10.802;2022-12-08T08:40:18;1.70;99.90
11152;DHT22;5630;49.342;10.802;2022-12-08T08:42:44;1.60;99.90
11152;DHT22;5630;49.342;10.802;2022-12-08T08:45:10;1.70;99.90
11152;DHT22;5630;49.342;10.802;2022-12-08T08:47:35;1.70;99.90
11152;DHT22;5630;49.342;10.802;2022-12-08T08:50:01;1.70;99.90
11152;DHT22;5630;49.342;10.802;2022-12-08T08:52:26;1.80;99.90
11152;DHT22;5630;49.342;10.802;2022-12-08T08:54:52;1.70;99.90
11152;DHT22;5630;49.342;10.802;2022-12-08T08:57:17;1.80;99.90
11152;DHT22;5630;49.342;10.802;2022-12-08T08:59:43;1.80;99.90
11152;DHT22;5630;49.342;10.802;2022-12-08T09:02:15;1.80;99.90
11152;DHT22;5630;49.342;10.802;2022-12-08T09:04:41;1.80;99.90
11152;DHT22;5630;49.342;10.802;2022-12-08T09:07:06;1.80;99.90
11152;DHT22;5630;49.342;10.802;2022-12-08T09:09:32;1.70;99.90
11152;DHT22;5630;49.342;10.802;2022-12-08T09:11:58;1.80;99.90
11152;DHT22;5630;49.342;10.802;2022-12-08T09:14:23;1.90;99.90
11152;DHT22;5630;49.342;10.802;2022-12-08T09:16:49;1.90;99.90
11152;DHT22;5630;49.342;10.802;2022-12-08T09:19:15;1.90;99.90
11152;DHT22;5630;49.342;10.802;2022-12-08T09:21:40;1.90;99.90
11152;DHT22;5630;49.342;10.802;2022-12-08T09:24:06;1.90;99.90
11152;DHT22;5630;49.342;10.802;2022-12-08T09:26:34;1.90;99.90
11152;DHT22;5630;49.342;10.802;2022-12-08T09:29:00;1.90;99.90
11152;DHT22;5630;49.342;10.802;2022-12-08T09:31:25;1.90;99.90
11152;DHT22;5630;49.342;10.802;2022-12-08T09:33:51;1.90;99.90
11152;DHT22;5630;49.342;10.802;2022-12-08T09:36:17;1.90;99.90
11152;DHT22;5630;49.342;10.802;2022-12-08T09:38:43;1.90;99.90
11152;DHT22;5630;49.342;10.802;2022-12-08T09:41:19;1.90;99.90
11152;DHT22;5630;49.342;10.802;2022-12-08T09:46:32;1.90;99.90
11152;DHT22;5630;49.342;10.802;2022-12-08T09:48:59;1.90;99.90
11152;DHT22;5630;49.342;10.802;2022-12-08T09:51:32;1.90;99.90
11152;DHT22;5630;49.342;10.802;2022-12-08T09:54:10;2.00;99.90
11152;DHT22;5630;49.342;10.802;2022-12-08T09:56:38;2.00;99.90
11152;DHT22;5630;49.342;10.802;2022-12-08T10:01:34;2.10;99.90
11152;DHT22;5630;49.342;10.802;2022-12-08T10:04:02;2.10;99.90
11152;DHT22;5630;49.342;10.802;2022-12-08T10:15:37;2.30;99.90
11152;DHT22;5630;49.342;10.802;2022-12-08T10:18:15;2.30;99.90
11152;DHT22;5630;49.342;10.802;2022-12-08T10:20:43;2.40;99.90
11152;DHT22;5630;49.342;10.802;2022-12-08T10:25:46;2.50;99.90
11152;DHT22;5630;49.342;10.802;2022-12-08T10:28:13;2.50;99.90
11152;DHT22;5630;49.342;10.802;2022-12-08T10:30:39;2.60;99.90
11152;DHT22;5630;49.342;10.802;2022-12-08T10:33:13;2.60;99.90
11152;DHT22;5630;49.342;10.802;2022-12-08T10:35:48;2.70;99.90
11152;DHT22;5630;49.342;10.802;2022-12-08T10:38:42;2.80;99.90
11152;DHT22;5630;49.342;10.802;2022-12-08T10:41:12;2.80;99.90
11152;DHT22;5630;49.342;10.802;2022-12-08T10:46:19;2.90;99.90
11152;DHT22;5630;49.342;10.802;2022-12-08T10:48:48;2.90;99.90
11152;DHT22;5630;49.342;10.802;2022-12-08T10:54:00;3.10;99.90
11152;DHT22;5630;49.342;10.802;2022-12-08T10:56:27;3.00;99.90
11152;DHT22;5630;49.342;10.802;2022-12-08T10:59:14;3.00;99.90
11152;DHT22;5630;49.342;10.802;2022-12-08T11:01:41;3.00;99.90
11152;DHT22;5630;49.342;10.802;2022-12-08T11:04:25;3.10;99.90
11152;DHT22;5630;49.342;10.802;2022-12-08T11:06:54;3.00;99.90
11152;DHT22;5630;49.342;10.802;2022-12-08T11:12:13;3.00;99.90
11152;DHT22;5630;49.342;10.802;2022-12-08T11:17:17;3.20;99.90
11152;DHT22;5630;49.342;10.802;2022-12-08T11:22:37;3.30;99.90
11152;DHT22;5630;49.342;10.802;2022-12-08T11:25:10;3.30;99.90
11152;DHT22;5630;49.342;10.802;2022-12-08T11:27:41;3.30;99.90
11152;DHT22;5630;49.342;10.802;2022-12-08T11:30:37;3.20;99.90
11152;DHT22;5630;49.342;10.802;2022-12-08T11:33:15;3.10;99.90
11152;DHT22;5630;49.342;10.802;2022-12-08T11:35:44;3.10;99.90
11152;DHT22;5630;49.342;10.802;2022-12-08T11:38:14;3.20;99.90
11152;DHT22;5630;49.342;10.802;2022-12-08T11:40:42;3.20;99.90
11152;DHT22;5630;49.342;10.802;2022-12-08T11:45:43;3.20;99.90
11152;DHT22;5630;49.342;10.802;2022-12-08T11:48:23;3.30;99.90
11152;DHT22;5630;49.342;10.802;2022-12-08T11:50:50;3.40;99.90
11152;DHT22;5630;49.342;10.802;2022-12-08T11:55:54;3.40;99.90
11152;DHT22;5630;49.342;10.802;2022-12-08T11:58:40;3.50;99.90
11152;DHT22;5630;49.342;10.802;2022-12-08T12:01:22;3.50;99.90
11152;DHT22;5630;49.342;10.802;2022-12-08T12:17:47;3.30;99.90
11152;DHT22;5630;49.342;10.802;2022-12-08T12:20:30;3.30;99.90
11152;DHT22;5630;49.342;10.802;2022-12-08T12:23:09;3.30;99.90
11152;DHT22;5630;49.342;10.802;2022-12-08T12:25:48;3.30;99.90
11152;DHT22;5630;49.342;10.802;2022-12-08T12:28:15;3.40;99.90
11152;DHT22;5630;49.342;10.802;2022-12-08T12:30:52;3.30;99.90
11152;DHT22;5630;49.342;10.802;2022-12-08T12:33:19;3.40;99.90
11152;DHT22;5630;49.342;10.802;2022-12-08T12:35:46;3.40;99.90
11152;DHT22;5630;49.342;10.802;2022-12-08T12:38:20;3.40;99.90
11152;DHT22;5630;49.342;10.802;2022-12-08T12:41:07;3.40;99.90
11152;DHT22;5630;49.342;10.802;2022-12-08T12:43:35;3.40;99.90
11152;DHT22;5630;49.342;10.802;2022-12-08T12:48:48;3.50;99.90
11152;DHT22;5630;49.342;10.802;2022-12-08T12:51:53;3.40;99.90
11152;DHT22;5630;49.342;10.802;2022-12-08T12:54:24;3.40;99.90
11152;DHT22;5630;49.342;10.802;2022-12-08T12:59:44;3.40;99.90
11152;DHT22;5630;49.342;10.802;2022-12-08T13:07:24;3.30;99.90
11152;DHT22;5630;49.342;10.802;2022-12-08T13:10:09;3.30;99.90
11152;DHT22;5630;49.342;10.802;2022-12-08T13:12:35;3.30;99.90
11152;DHT22;5630;49.342;10.802;2022-12-08T13:15:04;3.30;99.90
11152;DHT22;5630;49.342;10.802;2022-12-08T13:17:32;3.30;99.90
11152;DHT22;5630;49.342;10.802;2022-12-08T13:20:02;3.30;99.90
11152;DHT22;5630;49.342;10.802;2022-12-08T13:22:55;3.30;99.90
11152;DHT22;5630;49.342;10.802;2022-12-08T13:28:18;3.20;99.90
11152;DHT22;5630;49.342;10.802;2022-12-08T13:30:58;3.20;99.90
11152;DHT22;5630;49.342;10.802;2022-12-08T13:33:38;3.20;99.90
11152;DHT22;5630;49.342;10.802;2022-12-08T13:36:17;3.20;99.90
11152;DHT22;5630;49.342;10.802;2022-12-08T13:38:45;3.20;99.90
11152;DHT22;5630;49.342;10.802;2022-12-08T13:41:16;3.20;99.90
11152;DHT22;5630;49.342;10.802;2022-12-08T13:43:58;3.20;99.90
11152;DHT22;5630;49.342;10.802;2022-12-08T13:46:37;3.20;99.90
11152;DHT22;5630;49.342;10.802;2022-12-08T13:49:05;3.20;99.90
11152;DHT22;5630;49.342;10.802;2022-12-08T13:51:45;3.20;99.90
11152;DHT22;5630;49.342;10.802;2022-12-08T13:56:46;3.20;99.90
11152;DHT22;5630;49.342;10.802;2022-12-08T14:01:46;3.10;99.90
11152;DHT22;5630;49.342;10.802;2022-12-08T14:04:15;3.20;99.90
11152;DHT22;5630;49.342;10.802;2022-12-08T14:06:47;3.10;99.90
11152;DHT22;5630;49.342;10.802;2022-12-08T14:09:19;3.10;99.90
11152;DHT22;5630;49.342;10.802;2022-12-08T14:11:54;3.10;99.90
11152;DHT22;5630;49.342;10.802;2022-12-08T14:14:30;3.10;99.90
11152;DHT22;5630;49.342;10.802;2022-12-08T14:17:00;3.10;99.90
11152;DHT22;5630;49.342;10.802;2022-12-08T14:19:28;3.10;99.90
11152;DHT22;5630;49.342;10.802;2022-12-08T14:21:59;3.10;99.90
11152;DHT22;5630;49.342;10.802;2022-12-08T14:27:15;5.90;99.90
11152;DHT22;5630;49.342;10.802;2022-12-08T14:29:48;5.50;99.90
11152;DHT22;5630;49.342;10.802;2022-12-08T14:32:26;5.20;99.90
11152;DHT22;5630;49.342;10.802;2022-12-08T14:37:36;4.30;99.90
11152;DHT22;5630;49.342;10.802;2022-12-08T14:40:11;4.00;99.90
11152;DHT22;5630;49.342;10.802;2022-12-08T14:45:12;3.70;99.90
11152;DHT22;5630;49.342;10.802;2022-12-08T14:47:38;3.60;99.90
11152;DHT22;5630;49.342;10.802;2022-12-08T14:50:36;3.50;99.90
11152;DHT22;5630;49.342;10.802;2022-12-08T14:53:09;3.50;99.90
11152;DHT22;5630;49.342;10.802;2022-12-08T14:55:36;3.40;99.90
11152;DHT22;5630;49.342;10.802;2022-12-08T14:58:02;3.40;99.90
11152;DHT22;5630;49.342;10.802;2022-12-08T15:00:28;3.30;99.90
11152;DHT22;5630;49.342;10.802;2022-12-08T15:02:54;3.30;99.90
11152;DHT22;5630;49.342;10.802;2022-12-08T15:05:26;3.30;99.90
11152;DHT22;5630;49.342;10.802;2022-12-08T15:07:58;3.10;99.90
11152;DHT22;5630;49.342;10.802;2022-12-08T15:10:26;3.10;99.90
11152;DHT22;5630;49.342;10.802;2022-12-08T15:13:01;3.10;99.90
11152;DHT22;5630;49.342;10.802;2022-12-08T15:15:27;3.10;99.90
11152;DHT22;5630;49.342;10.802;2022-12-08T15:18:30;3.10;99.90
11152;DHT22;5630;49.342;10.802;2022-12-08T15:21:04;3.10;99.90
11152;DHT22;5630;49.342;10.802;2022-12-08T15:23:44;3.10;99.90
11152;DHT22;5630;49.342;10.802;2022-12-08T15:26:22;3.00;99.90
11152;DHT22;5630;49.342;10.802;2022-12-08T15:28:48;4.40;99.90
11152;DHT22;5630;49.342;10.802;2022-12-08T15:31:14;5.40;99.90
11152;DHT22;5630;49.342;10.802;2022-12-08T15:33:40;5.70;99.90
11152;DHT22;5630;49.342;10.802;2022-12-08T15:36:06;5.40;99.90
11152;DHT22;5630;49.342;10.802;2022-12-08T15:38:32;5.20;99.90
11152;DHT22;5630;49.342;10.802;2022-12-08T15:40:59;5.00;99.90
11152;DHT22;5630;49.342;10.802;2022-12-08T15:43:25;4.70;99.90
11152;DHT22;5630;49.342;10.802;2022-12-08T15:45:51;4.40;99.90
11152;DHT22;5630;49.342;10.802;2022-12-08T15:48:19;4.20;99.90
11152;DHT22;5630;49.342;10.802;2022-12-08T15:50:46;4.00;99.90
11152;DHT22;5630;49.342;10.802;2022-12-08T15:53:12;3.90;99.90
11152;DHT22;5630;49.342;10.802;2022-12-08T15:55:39;3.90;99.90
11152;DHT22;5630;49.342;10.802;2022-12-08T15:58:05;3.80;99.90
11152;DHT22;5630;49.342;10.802;2022-12-08T16:00:33;3.70;99.90
11152;DHT22;5630;49.342;10.802;2022-12-08T16:03:00;3.60;99.90
11152;DHT22;5630;49.342;10.802;2022-12-08T16:05:26;3.50;99.90
11152;DHT22;5630;49.342;10.802;2022-12-08T16:07:53;3.50;99.90
11152;DHT22;5630;49.342;10.802;2022-12-08T16:10:22;3.50;99.90
11152;DHT22;5630;49.342;10.802;2022-12-08T16:12:48;3.50;99.90
11152;DHT22;5630;49.342;10.802;2022-12-08T16:15:38;3.50;99.90
11152;DHT22;5630;49.342;10.802;2022-12-08T16:18:04;3.40;99.90
11152;DHT22;5630;49.342;10.802;2022-12-08T16:20:30;3.30;99.90
11152;DHT22;5630;49.342;10.802;2022-12-08T16:22:56;3.30;99.90
11152;DHT22;5630;49.342;10.802;2022-12-08T16:25:22;3.30;99.90
11152;DHT22;5630;49.342;10.802;2022-12-08T16:27:53;3.30;99.90
11152;DHT22;5630;49.342;10.802;2022-12-08T16:30:20;3.20;99.90
11152;DHT22;5630;49.342;10.802;2022-12-08T16:32:46;3.20;99.90
11152;DHT22;5630;49.342;10.802;2022-12-08T16:35:12;3.20;99.90
11152;DHT22;5630;49.342;10.802;2022-12-08T16:37:38;3.20;99.90
11152;DHT22;5630;49.342;10.802;2022-12-08T16:40:04;3.20;99.90
11152;DHT22;5630;49.342;10.802;2022-12-08T16:42:31;3.20;99.90
11152;DHT22;5630;49.342;10.802;2022-12-08T16:45:28;3.10;99.90
11152;DHT22;5630;49.342;10.802;2022-12-08T16:47:58;3.10;99.90
11152;DHT22;5630;49.342;10.802;2022-12-08T16:50:33;3.10;99.90
11152;DHT22;5630;49.342;10.802;2022-12-08T16:53:03;3.10;99.90
11152;DHT22;5630;49.342;10.802;2022-12-08T16:55:29;3.10;99.90
11152;DHT22;5630;49.342;10.802;2022-12-08T16:57:55;3.10;99.90
11152;DHT22;5630;49.342;10.802;2022-12-08T17:00:23;3.10;99.90
11152;DHT22;5630;49.342;10.802;2022-12-08T17:02:49;3.00;99.90
11152;DHT22;5630;49.342;10.802;2022-12-08T17:05:17;3.00;99.90
11152;DHT22;5630;49.342;10.802;2022-12-08T17:07:44;3.00;99.90
11152;DHT22;5630;49.342;10.802;2022-12-08T17:10:12;3.00;99.90
11152;DHT22;5630;49.342;10.802;2022-12-08T17:12:38;3.00;99.90
11152;DHT22;5630;49.342;10.802;2022-12-08T17:15:06;3.00;99.90
11152;DHT22;5630;49.342;10.802;2022-12-08T17:17:32;3.00;99.90
11152;DHT22;5630;49.342;10.802;2022-12-08T17:20:00;3.00;99.90
11152;DHT22;5630;49.342;10.802;2022-12-08T17:22:29;3.00;99.90
11152;DHT22;5630;49.342;10.802;2022-12-08T17:24:54;2.90;99.90
11152;DHT22;5630;49.342;10.802;2022-12-08T17:27:20;3.00;99.90
11152;DHT22;5630;49.342;10.802;2022-12-08T17:29:45;2.90;99.90
11152;DHT22;5630;49.342;10.802;2022-12-08T17:32:11;2.90;99.90
11152;DHT22;5630;49.342;10.802;2022-12-08T17:34:36;2.90;99.90
11152;DHT22;5630;49.342;10.802;2022-12-08T17:37:02;2.90;99.90
11152;DHT22;5630;49.342;10.802;2022-12-08T17:39:27;2.80;99.90
11152;DHT22;5630;49.342;10.802;2022-12-08T17:41:53;2.80;99.90